Time;durP1;ratioP1;P1;durP2;ratioP2;P2;SDS_P1;SDS_P2;PMS_P1;PMS_P2;Temp;Humidity;BMP_temperature;BMP_pressure;BME280_temperature;BME280_humidity;BME280_pressure;Samples;Min_cycle;Max_cycle;Signal;HPM_P1;HPM_P2
2022/09/06 00:00:45;;;;;;;1.07;0.80;;;;;;;12.19;52.75;101126.23;1707364;83;21043;-63
2022/09/06 00:03:15;;;;;;;4.20;1.17;;;;;;;12.14;52.99;101130.06;1717876;83;21090;-61
2022/09/06 00:05:45;;;;;;;3.10;1.30;;;;;;;12.12;53.19;101131.30;1676166;83;21091;-63
2022/09/06 00:08:14;;;;;;;1.35;1.00;;;;;;;12.11;53.40;101132.34;1689496;83;21032;-62
2022/09/06 00:10:46;;;;;;;2.67;1.12;;;;;;;12.10;53.50;101127.38;1705538;83;21506;-62
2022/09/06 00:13:16;;;;;;;2.35;0.90;;;;;;;12.06;53.64;101130.16;1707029;83;21025;-62
2022/09/06 00:15:47;;;;;;;2.12;1.20;;;;;;;12.03;53.85;101126.42;1701006;83;21439;-62
2022/09/06 00:18:17;;;;;;;1.47;1.05;;;;;;;11.98;54.02;101130.27;1712389;83;21076;-62
2022/09/06 00:20:48;;;;;;;1.52;0.90;;;;;;;11.90;54.22;101128.46;1688225;83;21035;-62
2022/09/06 00:23:17;;;;;;;1.72;1.07;;;;;;;11.88;54.28;101126.95;1705430;82;21105;-62
2022/09/06 00:25:46;;;;;;;2.95;1.07;;;;;;;11.87;54.23;101133.47;1717960;83;21448;-62
2022/09/06 00:28:15;;;;;;;1.98;1.05;;;;;;;11.86;54.25;101133.14;1717502;83;21026;-62
2022/09/06 00:30:45;;;;;;;4.70;1.20;;;;;;;11.85;54.14;101131.44;1709644;83;21084;-63
2022/09/06 00:33:14;;;;;;;1.87;1.10;;;;;;;11.81;54.19;101131.48;1702202;83;21095;-63
2022/09/06 00:35:46;;;;;;;3.90;1.60;;;;;;;11.75;54.29;101136.66;1711138;83;21106;-63
2022/09/06 00:38:15;;;;;;;2.35;1.05;;;;;;;11.71;54.34;101131.20;1700825;83;21000;-63
2022/09/06 00:40:46;;;;;;;2.08;1.25;;;;;;;11.68;54.39;101130.17;1688179;83;21467;-62
2022/09/06 00:43:16;;;;;;;2.65;1.10;;;;;;;11.65;54.46;101127.80;1717116;83;21065;-64
2022/09/06 00:45:46;;;;;;;1.57;0.98;;;;;;;11.65;54.66;101129.69;1705308;83;21094;-63
2022/09/06 00:48:16;;;;;;;2.30;1.10;;;;;;;11.67;54.66;101135.84;1717324;83;21481;-61
2022/09/06 00:50:51;;;;;;;3.12;1.20;;;;;;;11.65;54.63;101127.80;1713159;83;21110;-63
2022/09/06 00:53:21;;;;;;;2.17;1.30;;;;;;;11.63;54.57;101129.88;1688304;83;21011;-64
2022/09/06 00:55:51;;;;;;;4.00;1.30;;;;;;;11.63;54.63;101123.54;1705448;83;21059;-62
2022/09/06 00:58:21;;;;;;;2.08;0.98;;;;;;;11.60;54.64;101124.77;1707955;83;21070;-62
2022/09/06 01:00:51;;;;;;;1.98;0.90;;;;;;;11.54;54.74;101124.14;1703919;82;21105;-62
2022/09/06 01:03:22;;;;;;;1.92;0.95;;;;;;;11.50;54.98;101119.21;1717713;83;21106;-63
2022/09/06 01:06:15;;;;;;;1.32;0.90;;;;;;;11.51;55.09;101125.03;1705315;83;21122;-62
2022/09/06 01:09:03;;;;;;;3.27;1.20;;;;;;;11.48;55.10;101127.63;1717697;83;21063;-72
2022/09/06 01:11:52;;;;;;;2.42;1.00;;;;;;;11.48;55.17;101119.92;1695714;83;21007;-62
2022/09/06 01:14:55;;;;;;;4.12;1.02;;;;;;;11.48;55.11;101122.66;1695260;83;21028;-62
2022/09/06 01:17:58;;;;;;;2.15;1.10;;;;;;;11.48;55.30;101125.41;1717920;83;20999;-63
2022/09/06 01:20:49;;;;;;;2.95;1.10;;;;;;;11.44;55.34;101128.52;1717979;82;21031;-62
2022/09/06 01:23:56;;;;;;;1.75;1.02;;;;;;;11.41;55.58;101126.66;1705480;83;21110;-64
2022/09/06 01:26:59;;;;;;;3.10;1.20;;;;;;;11.37;55.69;101122.59;1707315;83;21079;-64
2022/09/06 01:30:01;;;;;;;2.70;1.20;;;;;;;11.27;55.93;101131.59;1712786;83;21074;-63
2022/09/06 01:32:55;;;;;;;2.90;1.02;;;;;;;11.20;56.14;101137.48;1706061;83;21067;-63
2022/09/06 01:35:37;;;;;;;1.25;0.93;;;;;;;11.14;56.36;101130.84;1690136;83;21115;-62
2022/09/06 01:38:07;;;;;;;3.22;1.10;;;;;;;11.14;56.47;101132.21;1699346;83;21035;-67
2022/09/06 01:40:37;;;;;;;1.65;1.07;;;;;;;11.09;56.54;101132.77;1688428;83;21023;-63
2022/09/06 01:43:11;;;;;;;1.25;0.90;;;;;;;11.07;56.50;101135.36;1698391;83;21059;-63
2022/09/06 01:45:46;;;;;;;2.70;0.93;;;;;;;11.08;56.30;101140.66;1704392;83;21090;-62
2022/09/06 01:48:50;;;;;;;3.15;0.90;;;;;;;11.11;56.20;101145.78;1683159;82;21171;-62
2022/09/06 01:51:55;;;;;;;2.27;0.80;;;;;;;11.16;56.14;101144.38;1694291;83;21023;-62
2022/09/06 01:54:45;;;;;;;1.30;0.90;;;;;;;11.16;55.86;101144.38;1717743;82;21463;-62
2022/09/06 01:57:55;;;;;;;1.67;0.90;;;;;;;11.19;55.72;101148.13;1701318;83;21076;-62
2022/09/06 02:00:25;;;;;;;2.85;1.22;;;;;;;11.21;55.62;101142.78;1710995;83;21087;-64
2022/09/06 02:03:13;;;;;;;2.55;1.20;;;;;;;11.21;55.57;101135.92;1717351;83;21941;-63
2022/09/06 02:05:56;;;;;;;1.90;0.90;;;;;;;11.20;55.53;101142.97;1705180;83;21482;-63
2022/09/06 02:08:36;;;;;;;3.55;1.10;;;;;;;11.18;55.45;101139.04;1700707;83;21075;-63
2022/09/06 02:11:08;;;;;;;4.17;1.20;;;;;;;11.18;55.53;101156.02;1688412;83;21106;-65
2022/09/06 02:13:42;;;;;;;2.27;0.98;;;;;;;11.18;55.62;101153.27;1700810;83;21063;-63
2022/09/06 02:16:13;;;;;;;2.33;1.05;;;;;;;11.15;55.73;101156.38;1695338;83;21003;-62
2022/09/06 02:18:48;;;;;;;2.60;0.98;;;;;;;11.08;55.97;101148.89;1713983;83;21070;-62
2022/09/06 02:21:18;;;;;;;3.25;1.15;;;;;;;11.05;56.21;101154.73;1685283;83;21085;-63
2022/09/06 02:23:50;;;;;;;3.92;1.07;;;;;;;11.01;56.36;101157.47;1691082;83;21031;-62
2022/09/06 02:26:23;;;;;;;3.15;1.00;;;;;;;10.99;56.51;101155.44;1714256;82;21074;-62
2022/09/06 02:28:53;;;;;;;2.62;1.07;;;;;;;10.99;56.50;101159.55;1688334;83;21016;-63
2022/09/06 02:31:27;;;;;;;2.33;0.88;;;;;;;10.97;56.57;101156.13;1701089;83;21023;-62
2022/09/06 02:33:58;;;;;;;2.87;1.00;;;;;;;10.96;56.59;101162.65;1688480;83;21087;-62
2022/09/06 02:36:29;;;;;;;1.60;0.90;;;;;;;10.90;56.59;101157.05;1688397;83;21039;-62
2022/09/06 02:39:02;;;;;;;2.17;0.93;;;;;;;10.86;56.54;101157.92;1689717;83;21023;-62
2022/09/06 02:41:32;;;;;;;2.27;0.80;;;;;;;10.85;56.53;101164.44;1705800;83;21040;-61
2022/09/06 02:44:02;;;;;;;4.58;1.10;;;;;;;10.85;56.51;101162.22;1709810;83;21032;-63
2022/09/06 02:46:32;;;;;;;3.87;1.12;;;;;;;10.84;56.55;101165.99;1714006;83;21090;-62
2022/09/06 02:49:02;;;;;;;3.00;1.10;;;;;;;10.82;56.63;101163.43;1710984;83;21022;-62
2022/09/06 02:51:37;;;;;;;2.55;1.02;;;;;;;10.78;56.70;101164.83;1688364;83;21036;-62
2022/09/06 02:54:07;;;;;;;2.33;1.00;;;;;;;10.74;56.74;101160.22;1700766;83;21051;-62
2022/09/06 02:56:38;;;;;;;2.17;0.98;;;;;;;10.72;56.90;101154.06;1713401;83;21098;-66
2022/09/06 02:59:07;;;;;;;2.75;1.27;;;;;;;10.74;56.95;101156.11;1705492;83;21047;-62
2022/09/06 03:01:36;;;;;;;3.12;1.20;;;;;;;10.74;57.03;101154.73;1693993;83;21564;-63
2022/09/06 03:04:07;;;;;;;3.47;1.00;;;;;;;10.75;57.10;101161.08;1713166;83;21035;-62
2022/09/06 03:06:37;;;;;;;1.35;0.90;;;;;;;10.68;57.19;101160.94;1708502;83;20999;-63
2022/09/06 03:09:09;;;;;;;3.65;1.12;;;;;;;10.61;57.39;101159.09;1717993;83;21031;-63
2022/09/06 03:11:39;;;;;;;1.80;1.27;;;;;;;10.51;57.61;101162.06;1695543;83;21050;-62
2022/09/06 03:14:09;;;;;;;2.47;1.32;;;;;;;10.45;57.99;101165.00;1700920;83;21545;-64
2022/09/06 03:16:39;;;;;;;2.98;1.20;;;;;;;10.45;58.17;101170.48;1688463;83;21517;-63
2022/09/06 03:19:09;;;;;;;3.22;1.30;;;;;;;10.45;58.25;101170.48;1700574;82;21106;-61
2022/09/06 03:21:38;;;;;;;7.70;2.20;;;;;;;10.42;58.42;101166.73;1696348;83;21035;-63
2022/09/06 03:24:08;;;;;;;6.72;2.98;;;;;;;10.37;58.66;101174.59;1717220;83;21048;-62
2022/09/06 03:26:39;;;;;;;5.15;3.37;;;;;;;10.31;59.01;101175.30;1709601;83;21102;-64
2022/09/06 03:29:09;;;;;;;7.90;4.28;;;;;;;10.29;59.41;101171.89;1728026;83;21070;-62
2022/09/06 03:31:40;;;;;;;7.72;4.00;;;;;;;10.27;59.74;101178.05;1716855;83;21082;-63
2022/09/06 03:34:10;;;;;;;5.10;3.17;;;;;;;10.24;60.04;101174.81;1715313;83;21070;-66
2022/09/06 03:36:40;;;;;;;4.72;2.80;;;;;;;10.23;60.26;101178.07;1727848;83;21109;-63
2022/09/06 03:39:10;;;;;;;4.62;2.60;;;;;;;10.26;60.45;101185.94;1715407;83;21492;-63
2022/09/06 03:41:40;;;;;;;4.75;2.40;;;;;;;10.29;60.60;101188.83;1711695;83;21062;-64
2022/09/06 03:44:09;;;;;;;5.03;2.30;;;;;;;10.30;60.68;101191.40;1707387;83;21542;-77
2022/09/06 03:46:38;;;;;;;4.40;2.25;;;;;;;10.30;60.72;101188.66;1723616;82;21034;-62
2022/09/06 03:49:09;;;;;;;5.65;2.22;;;;;;;10.29;60.82;101191.58;1714734;83;20999;-64
2022/09/06 03:51:39;;;;;;;3.92;1.77;;;;;;;10.27;60.92;101194.48;1718461;82;21086;-63
2022/09/06 03:54:08;;;;;;;3.87;1.70;;;;;;;10.23;61.04;101193.14;1697899;83;21118;-63
2022/09/06 03:56:38;;;;;;;5.30;1.90;;;;;;;10.23;61.19;101198.61;1701309;83;21007;-64
2022/09/06 03:59:08;;;;;;;6.80;2.00;;;;;;;10.21;61.28;101202.04;1722033;83;21043;-63
2022/09/06 04:01:38;;;;;;;3.65;2.10;;;;;;;10.12;61.44;101203.91;1679151;84;21046;-62
2022/09/06 04:04:08;;;;;;;7.37;2.47;;;;;;;10.07;61.78;101206.84;1716068;83;21050;-64
2022/09/06 04:06:38;;;;;;;4.22;2.17;;;;;;;10.09;62.05;101215.22;1728047;83;21085;-64
2022/09/06 04:09:07;;;;;;;6.62;2.42;;;;;;;10.12;62.15;101209.91;1710531;82;22422;-65
2022/09/06 04:11:36;;;;;;;4.47;2.30;;;;;;;10.13;62.20;101212.47;1671288;84;21086;-62
2022/09/06 04:14:06;;;;;;;5.75;2.52;;;;;;;10.16;62.18;101216.74;1710964;82;21433;-65
2022/09/06 04:16:36;;;;;;;4.87;2.02;;;;;;;10.10;62.30;101214.19;1697898;83;21103;-62
2022/09/06 04:19:06;;;;;;;6.70;2.40;;;;;;;10.07;62.48;101213.17;1712459;82;21031;-63
2022/09/06 04:21:36;;;;;;;3.77;1.90;;;;;;;10.04;62.57;101211.30;1707753;83;21094;-63
2022/09/06 04:24:06;;;;;;;5.25;2.17;;;;;;;10.06;62.74;101220.19;1698798;83;21199;-63
2022/09/06 04:26:36;;;;;;;4.47;2.40;;;;;;;10.10;62.79;101223.77;1728003;83;21030;-63
2022/09/06 04:29:05;;;;;;;4.87;2.60;;;;;;;10.13;62.76;101223.94;1715233;83;21507;-62
2022/09/06 04:31:35;;;;;;;4.40;2.62;;;;;;;10.16;62.75;101221.70;1716342;83;21031;-63
2022/09/06 04:34:05;;;;;;;6.35;2.33;;;;;;;10.19;62.57;101224.61;1704034;83;21055;-63
2022/09/06 04:36:35;;;;;;;6.47;3.22;;;;;;;10.24;62.60;101231.81;1723346;83;21093;-67
2022/09/06 04:39:05;;;;;;;8.80;3.55;;;;;;;10.26;62.45;101222.91;1697876;83;21110;-64
2022/09/06 04:41:36;;;;;;;5.97;3.33;;;;;;;10.27;62.14;101223.25;1714176;82;21054;-63
2022/09/06 04:44:07;;;;;;;5.85;3.10;;;;;;;10.30;61.79;101222.05;1727821;83;20999;-61
2022/09/06 04:46:37;;;;;;;16.30;3.75;;;;;;;10.32;61.41;101229.05;1727794;82;21011;-63
2022/09/06 04:49:07;;;;;;;8.60;3.55;;;;;;;10.34;60.68;101231.10;1725310;82;21133;-64
2022/09/06 04:51:38;;;;;;;7.25;3.08;;;;;;;10.37;60.11;101223.91;1715075;83;21098;-63
2022/09/06 04:54:08;;;;;;;5.62;2.65;;;;;;;10.41;59.60;101223.07;1728009;83;21082;-63
2022/09/06 04:56:38;;;;;;;11.88;3.20;;;;;;;10.47;59.07;101225.10;1715586;83;21050;-63
2022/09/06 04:59:09;;;;;;;5.67;2.52;;;;;;;10.48;58.53;101225.44;1715527;83;21520;-63
2022/09/06 05:01:38;;;;;;;6.15;2.52;;;;;;;10.47;58.43;101221.84;1702788;83;21074;-64
2022/09/06 05:04:07;;;;;;;8.85;2.50;;;;;;;10.50;58.31;101226.63;1709839;82;21080;-63
2022/09/06 05:06:38;;;;;;;7.53;3.15;;;;;;;10.52;58.19;101221.83;1715611;83;21066;-61
2022/09/06 05:09:07;;;;;;;11.03;3.58;;;;;;;10.56;58.21;101221.81;1716342;83;21007;-63
2022/09/06 05:11:37;;;;;;;5.83;2.52;;;;;;;10.63;58.13;101228.29;1721379;81;21027;-61
2022/09/06 05:14:07;;;;;;;5.05;2.50;;;;;;;10.75;57.87;101226.34;1723140;83;21055;-64
2022/09/06 05:16:38;;;;;;;6.17;2.83;;;;;;;10.89;57.65;101227.48;1709099;83;21568;-62
2022/09/06 05:19:07;;;;;;;5.05;2.50;;;;;;;11.02;57.18;101225.52;1698274;83;21099;-62
2022/09/06 05:21:38;;;;;;;4.97;2.10;;;;;;;11.12;56.76;101226.17;1720432;83;21051;-63
2022/09/06 05:24:07;;;;;;;6.85;3.15;;;;;;;11.21;56.20;101226.97;1723919;83;20998;-63
2022/09/06 05:26:39;;;;;;;8.05;2.95;;;;;;;11.31;55.79;101228.95;1720716;81;21034;-63
2022/09/06 05:29:15;;;;;;;9.60;2.55;;;;;;;11.40;55.47;101215.52;1701153;83;21070;-64
2022/09/06 05:31:45;;;;;;;13.70;3.20;;;;;;;11.52;55.18;101226.91;1725343;83;21022;-63
2022/09/06 05:34:15;;;;;;;7.70;2.60;;;;;;;11.64;54.69;101224.92;1708697;83;21487;-62
2022/09/06 05:36:45;;;;;;;5.83;2.40;;;;;;;11.76;54.25;101218.50;1705760;83;21116;-62
2022/09/06 05:39:18;;;;;;;4.05;2.15;;;;;;;11.89;53.92;101217.90;1713260;82;21047;-63
2022/09/06 05:41:46;;;;;;;6.95;2.35;;;;;;;12.03;53.32;101218.45;1718901;82;21014;-63
2022/09/06 05:44:16;;;;;;;7.75;2.30;;;;;;;12.10;52.37;101212.53;1697363;83;21031;-61
2022/09/06 05:46:46;;;;;;;4.37;2.47;;;;;;;12.15;51.92;101218.84;1717769;82;21022;-62
2022/09/06 05:49:17;;;;;;;5.28;2.37;;;;;;;12.23;51.72;101216.00;1697977;83;21475;-72
2022/09/06 05:51:51;;;;;;;3.98;2.10;;;;;;;12.31;50.96;101212.64;1708289;83;21058;-65
2022/09/06 05:54:21;;;;;;;5.00;2.30;;;;;;;12.37;50.82;101213.29;1711483;83;21066;-63
2022/09/06 05:56:51;;;;;;;6.22;2.17;;;;;;;12.45;50.35;101216.46;1724461;83;21035;-62
2022/09/06 05:59:22;;;;;;;4.80;2.33;;;;;;;12.52;50.07;101219.30;1698013;83;21007;-71
2022/09/06 06:01:52;;;;;;;4.90;2.00;;;;;;;12.57;49.80;101216.83;1716064;83;21075;-63
2022/09/06 06:04:22;;;;;;;5.90;2.00;;;;;;;12.62;49.29;101221.23;1698038;83;21027;-63
2022/09/06 06:06:53;;;;;;;5.83;1.80;;;;;;;12.62;49.18;101220.72;1703994;83;21026;-63
2022/09/06 06:09:23;;;;;;;5.53;1.90;;;;;;;12.65;48.96;101220.85;1725530;82;21042;-64
2022/09/06 06:11:54;;;;;;;6.85;2.40;;;;;;;12.70;48.92;101228.86;1625381;88;21054;-63
2022/09/06 06:14:23;;;;;;;3.60;1.70;;;;;;;12.73;48.18;101226.25;1606605;88;21070;-63
2022/09/06 06:16:53;;;;;;;5.47;2.12;;;;;;;12.70;48.20;101219.23;1614315;86;21139;-61
2022/09/06 06:19:22;;;;;;;3.45;1.80;;;;;;;12.74;48.51;101225.20;1610370;88;21486;-66
2022/09/06 06:21:54;;;;;;;3.47;1.80;;;;;;;12.78;47.86;101222.40;1618016;86;21050;-63
2022/09/06 06:24:25;;;;;;;3.20;1.67;;;;;;;12.78;47.84;101228.42;1617800;88;21100;-62
2022/09/06 06:26:54;;;;;;;4.28;1.82;;;;;;;12.82;47.50;101224.24;1612537;88;21539;-62
2022/09/06 06:29:24;;;;;;;3.95;1.65;;;;;;;12.88;47.48;101224.33;1611455;88;21157;-63
2022/09/06 06:31:54;;;;;;;5.20;1.77;;;;;;;12.90;46.75;101223.61;1613439;88;21042;-63
2022/09/06 06:34:24;;;;;;;3.55;1.50;;;;;;;12.92;47.05;101224.27;1623564;87;21059;-62
2022/09/06 06:36:53;;;;;;;5.97;1.50;;;;;;;12.99;46.72;101223.83;1664601;85;21102;-62
2022/09/06 06:39:23;;;;;;;4.95;1.70;;;;;;;13.04;46.34;101219.67;1654928;85;21068;-63
2022/09/06 06:41:53;;;;;;;6.03;1.37;;;;;;;13.09;46.34;101226.30;1681438;84;21055;-63
2022/09/06 06:44:30;;;;;;;3.45;1.10;;;;;;;13.17;46.10;101226.22;1667716;84;21578;-65
2022/09/06 06:47:01;;;;;;;4.65;1.30;;;;;;;13.23;45.71;101227.33;1686533;83;21020;-64
2022/09/06 06:49:29;;;;;;;3.35;1.20;;;;;;;13.28;45.33;101224.84;1698249;83;21178;-63
2022/09/06 06:52:00;;;;;;;3.02;1.40;;;;;;;13.33;45.09;101228.72;1686623;84;21055;-64
2022/09/06 06:54:30;;;;;;;2.25;1.27;;;;;;;13.36;44.83;101230.22;1675539;84;21104;-63
2022/09/06 06:57:00;;;;;;;3.55;1.10;;;;;;;13.44;45.05;101227.88;1682904;83;21083;-63
2022/09/06 06:59:31;;;;;;;1.27;0.75;;;;;;;13.53;45.02;101224.79;1698473;84;21100;-63
2022/09/06 07:02:01;;;;;;;1.70;0.90;;;;;;;13.58;44.25;101226.42;1686513;84;22153;-63
2022/09/06 07:04:32;;;;;;;5.08;1.30;;;;;;;13.61;44.43;101223.28;1675914;83;21040;-64
2022/09/06 07:07:02;;;;;;;1.90;1.10;;;;;;;13.69;44.29;101231.11;1693964;84;21146;-63
2022/09/06 07:09:35;;;;;;;4.28;0.80;;;;;;;13.76;43.78;101230.12;1676776;83;21095;-63
2022/09/06 07:12:07;;;;;;;1.85;0.93;;;;;;;13.80;43.22;101234.70;1694353;84;21040;-63
2022/09/06 07:14:37;;;;;;;1.25;0.70;;;;;;;13.82;43.12;101237.59;1698645;83;21111;-64
2022/09/06 07:17:06;;;;;;;6.72;2.67;;;;;;;13.88;42.76;101227.67;1697578;83;21533;-64
2022/09/06 07:19:39;;;;;;;4.70;1.20;;;;;;;13.91;42.51;101225.90;1688842;84;21057;-65
2022/09/06 07:22:10;;;;;;;2.25;0.90;;;;;;;13.98;42.83;101225.95;1666112;84;21091;-72
2022/09/06 07:24:43;;;;;;;2.27;1.00;;;;;;;14.06;42.49;101223.89;1669354;84;21504;-64
2022/09/06 07:27:13;;;;;;;6.25;3.35;;;;;;;14.08;42.41;101230.59;1697527;84;21059;-64
2022/09/06 07:29:44;;;;;;;2.00;0.80;;;;;;;14.12;42.56;101230.52;1687283;82;21031;-62
2022/09/06 07:32:14;;;;;;;6.05;1.20;;;;;;;14.17;42.22;101227.48;1703605;83;21086;-64
2022/09/06 07:34:44;;;;;;;1.87;1.02;;;;;;;14.23;42.30;101230.80;1705284;83;21031;-65
2022/09/06 07:37:14;;;;;;;4.08;1.20;;;;;;;14.27;42.37;101225.74;1693112;83;21577;-64
2022/09/06 07:39:44;;;;;;;2.90;1.20;;;;;;;14.34;42.54;101228.05;1696385;83;21035;-66
2022/09/06 07:42:13;;;;;;;5.40;1.30;;;;;;;14.40;42.56;101231.38;1703015;83;21099;-63
2022/09/06 07:44:42;;;;;;;5.03;1.50;;;;;;;14.48;42.62;101227.63;1697151;83;21063;-65
2022/09/06 07:47:14;;;;;;;4.17;1.60;;;;;;;14.60;42.47;101228.77;1700615;83;21039;-65
2022/09/06 07:54:23;;;;;;;2.77;1.52;;;;;;;14.78;42.02;101224.08;1712176;82;21114;-65
2022/09/06 07:56:57;;;;;;;2.08;1.30;;;;;;;14.91;41.35;101229.66;1713970;82;21098;-64
2022/09/06 07:59:26;;;;;;;2.90;1.32;;;;;;;14.90;40.63;101223.81;1717722;82;21075;-64
2022/09/06 08:01:56;;;;;;;6.87;1.92;;;;;;;14.90;40.89;101226.56;1706827;83;21039;-64
2022/09/06 08:04:26;;;;;;;3.10;1.52;;;;;;;14.97;40.94;101219.20;1709617;83;21074;-68
2022/09/06 08:06:58;;;;;;;3.40;0.88;;;;;;;15.07;40.09;101221.57;1708501;83;21035;-71
2022/09/06 08:09:28;;;;;;;3.22;1.27;;;;;;;15.16;38.65;101216.19;1698289;83;21094;-66
2022/09/06 08:12:05;;;;;;;2.83;1.30;;;;;;;15.17;38.04;101222.02;1688297;83;21074;-68
2022/09/06 08:14:30;;;;;;;2.12;1.45;;;;;;;15.20;38.00;101224.38;1702280;83;21075;-68
2022/09/06 08:17:01;;;;;;;2.77;1.70;;;;;;;15.21;37.95;101220.02;1717765;83;21071;-67
2022/09/06 08:19:31;;;;;;;2.67;1.75;;;;;;;15.23;37.75;101213.77;1717763;82;21106;-67
2022/09/06 08:22:02;;;;;;;5.58;1.98;;;;;;;15.18;38.33;101218.20;1705551;83;21090;-68
2022/09/06 08:24:34;;;;;;;5.05;1.80;;;;;;;15.21;38.74;101215.03;1691834;83;21043;-68
2022/09/06 08:27:06;;;;;;;2.75;1.80;;;;;;;15.22;38.45;101215.34;1687990;83;21086;-66
2022/09/06 08:29:34;;;;;;;4.28;2.00;;;;;;;15.19;38.51;101209.72;1714238;83;21071;-69
2022/09/06 08:32:04;;;;;;;8.45;2.50;;;;;;;15.18;38.29;101209.92;1709493;82;21068;-69
2022/09/06 08:34:33;;;;;;;2.27;1.30;;;;;;;15.26;38.49;101208.35;1713911;83;21067;-68
2022/09/06 08:37:05;;;;;;;2.05;1.00;;;;;;;15.48;37.57;101201.59;1688031;83;21035;-67
2022/09/06 08:39:38;;;;;;;3.02;1.40;;;;;;;15.65;36.73;101192.96;1714179;83;21051;-67
2022/09/06 08:42:07;;;;;;;2.25;1.30;;;;;;;15.84;36.85;101200.41;1710371;83;21491;-68
2022/09/06 08:44:42;;;;;;;5.00;1.77;;;;;;;16.11;36.90;101192.94;1688149;83;21543;-70
2022/09/06 08:47:14;;;;;;;;;;;;;;;16.38;35.89;101186.32;1695801;82;21059;-67
2022/09/06 08:49:56;;;;;;;2.98;1.12;;;;;;;16.73;35.56;101188.26;1705176;83;20962;-76
2022/09/06 08:52:57;;;;;;;2.50;1.30;;;;;;;17.07;35.29;101182.06;1707726;83;21459;-68
2022/09/06 08:55:33;;;;;;;3.22;1.40;;;;;;;17.41;33.88;101180.24;1715224;83;21070;-68
2022/09/06 08:58:35;;;;;;;1.98;1.42;;;;;;;17.41;32.56;101183.02;1701665;83;21024;-68
2022/09/06 09:01:08;;;;;;;3.02;1.70;;;;;;;17.24;33.29;101176.84;1717632;83;21714;-67
2022/09/06 09:03:39;;;;;;;2.95;1.57;;;;;;;17.11;34.17;101170.86;1705760;83;21055;-69
2022/09/06 09:06:09;;;;;;;3.90;1.85;;;;;;;17.02;34.33;101166.64;1700837;82;21047;-68
2022/09/06 09:08:58;;;;;;;3.62;1.95;;;;;;;16.97;34.64;101167.84;1706027;82;21047;-69
2022/09/06 09:11:32;;;;;;;3.67;2.10;;;;;;;16.91;34.69;101172.34;1714800;83;21074;-70
2022/09/06 09:14:21;;;;;;;2.40;1.55;;;;;;;16.82;34.73;101167.25;1716846;82;21086;-68
2022/09/06 09:16:52;;;;;;;2.17;1.15;;;;;;;16.69;34.73;101166.77;1717404;83;21067;-69
2022/09/06 09:19:22;;;;;;;3.70;1.50;;;;;;;16.53;34.50;101152.87;1707087;83;21059;-70
2022/09/06 09:21:51;;;;;;;2.75;1.60;;;;;;;16.43;34.78;101162.16;1693056;83;21067;-70
2022/09/06 09:24:20;;;;;;;3.75;1.20;;;;;;;16.35;35.04;101162.39;1712831;82;21102;-69
2022/09/06 09:27:12;;;;;;;3.10;1.50;;;;;;;16.35;35.00;101157.71;1693580;83;21091;-66
2022/09/06 09:29:58;;;;;;;2.90;1.30;;;;;;;16.34;35.14;101158.78;1695469;82;21091;-68
2022/09/06 09:32:34;;;;;;;2.42;1.20;;;;;;;16.35;34.73;101156.86;1697477;82;21063;-68
2022/09/06 09:35:32;;;;;;;3.02;1.30;;;;;;;16.37;34.89;101153.34;1661257;86;21047;-68
2022/09/06 09:38:09;;;;;;;4.37;1.62;;;;;;;16.42;35.09;101148.86;1706586;84;21101;-68
2022/09/06 09:40:59;;;;;;;4.90;2.58;;;;;;;16.46;35.17;101149.27;1725878;81;21022;-68
2022/09/06 09:43:39;;;;;;;5.00;2.45;;;;;;;16.47;35.41;101146.28;1723810;81;21031;-69
2022/09/06 09:46:25;;;;;;;4.67;2.58;;;;;;;16.47;35.62;101154.59;1727800;83;21064;-68
2022/09/06 09:49:10;;;;;;;15.35;3.00;;;;;;;16.43;35.49;101153.33;1727556;83;21039;-70
2022/09/06 09:51:44;;;;;;;7.00;2.92;;;;;;;16.33;35.44;101156.23;1710441;83;21003;-68
2022/09/06 09:54:16;;;;;;;5.60;3.10;;;;;;;16.24;35.91;101155.58;1710008;82;21031;-68
2022/09/06 09:56:51;;;;;;;5.17;3.10;;;;;;;16.20;36.36;101160.38;1698554;84;21051;-68
2022/09/06 09:59:39;;;;;;;5.45;2.77;;;;;;;16.21;36.53;101157.94;1704679;84;21031;-68
2022/09/06 10:02:34;;;;;;;5.62;2.90;;;;;;;16.20;36.63;101154.84;1723009;83;21034;-69
2022/09/06 10:05:11;;;;;;;6.08;2.98;;;;;;;16.21;36.45;101154.64;1727521;81;21023;-69
2022/09/06 10:07:52;;;;;;;7.47;2.30;;;;;;;16.21;36.59;101159.31;1726101;83;21035;-68
2022/09/06 10:10:27;;;;;;;5.58;2.65;;;;;;;16.15;35.11;101153.58;1725832;82;21050;-69
2022/09/06 10:13:10;;;;;;;5.42;2.50;;;;;;;16.02;35.54;101148.08;1718736;83;21023;-69
2022/09/06 10:15:42;;;;;;;5.62;2.80;;;;;;;16.03;35.71;101152.55;1706611;83;21035;-69
2022/09/06 10:18:29;;;;;;;5.47;2.93;;;;;;;16.02;35.56;101144.47;1722783;82;20999;-68
2022/09/06 10:21:11;;;;;;;5.78;2.98;;;;;;;16.00;35.65;101157.12;1718984;83;21051;-68
2022/09/06 10:24:08;;;;;;;7.42;3.12;;;;;;;16.03;35.65;101159.45;1722109;82;21133;-69
2022/09/06 10:26:51;;;;;;;7.40;3.65;;;;;;;16.06;35.67;101154.88;1711489;83;21051;-70
2022/09/06 10:29:53;;;;;;;9.23;5.10;;;;;;;16.06;35.38;101147.97;1703141;83;21070;-68
2022/09/06 10:32:33;;;;;;;10.95;5.53;;;;;;;16.00;35.49;101147.45;1722632;83;21038;-69
2022/09/06 10:35:11;;;;;;;11.48;6.17;;;;;;;15.84;36.16;101137.69;1723682;83;21078;-69
2022/09/06 10:38:19;;;;;;;15.28;8.13;;;;;;;15.84;36.68;101143.75;1702643;83;21509;-69
2022/09/06 10:41:14;;;;;;;16.93;9.13;;;;;;;15.85;36.82;101139.39;1715199;83;21081;-69
2022/09/06 10:44:01;;;;;;;23.52;12.30;;;;;;;15.89;36.99;101138.43;1714930;83;21554;-69
2022/09/06 10:46:30;;;;;;;25.77;13.22;;;;;;;15.78;37.11;101137.16;1715444;83;21102;-68
2022/09/06 10:48:59;;;;;;;26.77;14.55;;;;;;;15.73;37.58;101140.25;1707019;82;21042;-68
2022/09/06 10:51:39;;;;;;;34.33;16.85;;;;;;;15.77;37.64;101142.37;1708735;83;21470;-64
2022/09/06 10:54:18;;;;;;;36.10;17.98;;;;;;;15.83;37.11;101147.58;1710703;83;21095;-63
2022/09/06 10:57:02;;;;;;;38.85;18.65;;;;;;;15.83;36.97;101147.58;1713103;82;21038;-63
2022/09/06 10:59:36;;;;;;;30.70;16.45;;;;;;;15.83;37.30;101147.58;1703965;83;21066;-63
2022/09/06 11:02:36;;;;;;;33.25;17.12;;;;;;;15.88;37.27;101148.31;1721868;81;21043;-64
2022/09/06 11:05:10;;;;;;;31.62;17.15;;;;;;;15.90;37.23;101149.80;1709630;83;21031;-64
2022/09/06 11:07:45;;;;;;;37.33;18.15;;;;;;;15.94;37.21;101152.45;1691364;83;21521;-67
2022/09/06 11:10:34;;;;;;;34.90;18.62;;;;;;;15.92;37.41;101144.06;1694501;84;21032;-64
2022/09/06 11:13:19;;;;;;;33.15;18.25;;;;;;;15.89;37.64;101143.11;1707004;84;21082;-64
2022/09/06 11:15:59;;;;;;;32.53;18.05;;;;;;;15.88;37.79;101151.93;1694586;84;21064;-62
2022/09/06 11:19:16;;;;;;;40.80;19.65;;;;;;;15.90;37.67;101141.51;1699097;84;21074;-64
2022/09/06 11:22:29;;;;;;;41.33;20.65;;;;;;;15.91;37.73;101140.45;1716193;83;21114;-63
2022/09/06 11:25:22;;;;;;;39.60;21.33;;;;;;;15.88;37.40;101145.02;1722717;83;21042;-65
2022/09/06 11:27:56;;;;;;;45.67;22.77;;;;;;;15.91;37.69;101150.12;1710775;83;21106;-64
2022/09/06 11:30:27;;;;;;;49.03;24.10;;;;;;;15.97;37.87;101142.34;1720707;83;21491;-62
2022/09/06 11:33:26;;;;;;;38.05;19.80;;;;;;;16.01;38.06;101151.91;1697832;83;21098;-64
2022/09/06 11:36:19;;;;;;;38.02;20.08;;;;;;;16.07;37.49;101149.66;1722657;83;21084;-63
2022/09/06 11:38:57;;;;;;;39.25;21.77;;;;;;;16.14;37.05;101149.13;1663964;83;21078;-63
2022/09/06 11:41:36;;;;;;;42.05;22.30;;;;;;;16.14;36.44;101139.44;1709173;83;20999;-64
2022/09/06 11:44:05;;;;;;;44.55;24.35;;;;;;;16.07;36.53;101146.05;1699228;83;21098;-64
2022/09/06 11:46:43;;;;;;;55.35;29.67;;;;;;;16.04;36.59;101148.72;1727698;83;20991;-63
2022/09/06 11:49:30;;;;;;;62.62;31.30;;;;;;;16.04;36.95;101147.34;1712861;83;21113;-63
2022/09/06 11:52:00;;;;;;;60.03;32.67;;;;;;;16.04;37.37;101143.72;1710039;83;21093;-63
2022/09/06 11:54:44;;;;;;;65.32;33.33;;;;;;;16.06;37.47;101138.30;1710441;83;21079;-62
2022/09/06 11:57:17;;;;;;;83.95;41.30;;;;;;;16.07;37.76;101144.14;1722034;83;21349;-61
2022/09/06 11:59:59;;;;;;;79.45;41.95;;;;;;;16.11;37.80;101144.55;1678304;84;21092;-63
2022/09/06 12:02:39;;;;;;;74.27;37.80;;;;;;;16.10;37.49;101140.94;1695943;83;21028;-66
2022/09/06 12:05:12;;;;;;;59.45;33.02;;;;;;;16.04;37.26;101137.66;1690561;84;21522;-65